Time;durP1;ratioP1;P1;durP2;ratioP2;P2;SDS_P1;SDS_P2;PMS_P1;PMS_P2;Temp;Humidity;BMP_temperature;BMP_pressure;BME280_temperature;BME280_humidity;BME280_pressure;Samples;Min_cycle;Max_cycle;Signal;HPM_P1;HPM_P2
2021/09/27 00:02:26;;;;;;;23.43;21.43;;;15.10;99.90;;;;;;5067978;28;20221;-79
2021/09/27 00:04:54;;;;;;;22.77;20.77;;;15.00;99.90;;;;;;5059458;28;20195;-79
2021/09/27 00:07:21;;;;;;;24.20;22.00;;;15.00;99.90;;;;;;5064346;28;20222;-79
2021/09/27 00:09:48;;;;;;;23.07;21.10;;;14.90;99.90;;;;;;5062940;28;20204;-79
2021/09/27 00:12:15;;;;;;;23.27;21.33;;;14.90;99.90;;;;;;5059979;28;20196;-80
2021/09/27 00:14:42;;;;;;;22.57;20.70;;;14.90;99.90;;;;;;5060233;28;20220;-79
2021/09/27 00:17:09;;;;;;;23.67;21.67;;;15.00;99.90;;;;;;5056580;28;20222;-79
2021/09/27 00:19:37;;;;;;;24.13;22.07;;;14.90;99.90;;;;;;5059785;28;20247;-80
2021/09/27 00:22:06;;;;;;;22.47;20.57;;;14.80;99.90;;;;;;5051687;28;20199;-79
2021/09/27 00:24:33;;;;;;;23.77;21.73;;;14.80;99.90;;;;;;5057176;28;20205;-79
2021/09/27 00:27:00;;;;;;;24.40;22.13;;;14.80;99.90;;;;;;5055065;28;20654;-79
2021/09/27 00:29:27;;;;;;;24.60;22.50;;;14.80;99.90;;;;;;5047494;28;20211;-80
2021/09/27 00:31:54;;;;;;;23.90;21.53;;;14.70;99.90;;;;;;5046247;28;20279;-80
2021/09/27 00:34:21;;;;;;;24.50;22.40;;;14.70;99.90;;;;;;5051192;28;20207;-80
2021/09/27 00:36:48;;;;;;;24.30;22.20;;;14.70;99.90;;;;;;5055662;28;20699;-79
2021/09/27 00:39:16;;;;;;;24.27;22.03;;;14.60;99.90;;;;;;5052530;28;20262;-79
2021/09/27 00:41:44;;;;;;;24.77;22.57;;;14.60;99.90;;;;;;5049863;28;20298;-79
2021/09/27 00:44:11;;;;;;;24.70;22.50;;;14.60;99.90;;;;;;5051314;28;20658;-79
2021/09/27 00:46:37;;;;;;;24.27;22.17;;;14.50;99.90;;;;;;5052811;28;20227;-80
2021/09/27 00:49:05;;;;;;;24.73;22.53;;;14.50;99.90;;;;;;5054090;28;20204;-80
2021/09/27 00:51:38;;;;;;;24.90;22.73;;;14.50;99.90;;;;;;5047810;28;20203;-79
2021/09/27 00:54:09;;;;;;;23.23;21.23;;;14.50;99.90;;;;;;5050194;28;20261;-79
2021/09/27 00:56:43;;;;;;;24.27;21.97;;;14.50;99.90;;;;;;5049278;28;20587;-79
2021/09/27 00:59:11;;;;;;;23.10;21.10;;;14.60;99.90;;;;;;5050973;28;20661;-79
2021/09/27 01:01:39;;;;;;;24.87;22.70;;;14.60;99.90;;;;;;5049195;28;20551;-79
2021/09/27 01:04:07;;;;;;;24.43;22.33;;;14.60;99.90;;;;;;5043588;28;20225;-79
2021/09/27 01:06:47;;;;;;;23.93;21.83;;;14.60;99.90;;;;;;5052897;28;20592;-79
2021/09/27 01:09:25;;;;;;;24.60;22.40;;;14.50;99.90;;;;;;5045359;28;20549;-79
2021/09/27 01:12:25;;;;;;;22.40;20.50;;;14.50;99.90;;;;;;5033918;28;20258;-79
2021/09/27 01:15:19;;;;;;;23.93;21.93;;;14.50;99.90;;;;;;5043628;28;20209;-79
2021/09/27 01:17:59;;;;;;;23.47;21.37;;;14.50;99.90;;;;;;5034689;28;20215;-79
2021/09/27 01:20:52;;;;;;;23.47;21.37;;;14.40;99.90;;;;;;5035244;28;20188;-80
2021/09/27 01:24:01;;;;;;;23.37;21.37;;;14.40;99.90;;;;;;5036681;28;20200;-79
2021/09/27 01:27:07;;;;;;;23.77;21.67;;;14.40;99.90;;;;;;5048936;28;20647;-79
2021/09/27 01:30:14;;;;;;;23.83;21.73;;;14.40;99.90;;;;;;5049571;28;20209;-79
2021/09/27 01:32:45;;;;;;;25.33;23.10;;;14.40;99.90;;;;;;5047856;28;20196;-79
2021/09/27 01:35:31;;;;;;;24.33;22.23;;;14.50;99.90;;;;;;5055044;28;20203;-79
2021/09/27 01:38:14;;;;;;;24.27;22.17;;;14.50;99.90;;;;;;5046802;28;20660;-79
2021/09/27 01:40:53;;;;;;;23.93;21.87;;;14.60;99.90;;;;;;5047806;28;20665;-79
2021/09/27 01:43:24;;;;;;;22.50;20.60;;;14.60;99.90;;;;;;5051302;28;20267;-79
2021/09/27 01:45:58;;;;;;;25.23;22.83;;;14.60;99.90;;;;;;5040210;28;20712;-80
2021/09/27 01:48:32;;;;;;;25.47;23.07;;;14.60;99.90;;;;;;5046984;28;20205;-80
2021/09/27 01:51:01;;;;;;;23.67;21.57;;;14.60;99.90;;;;;;5050165;28;20230;-79
2021/09/27 01:53:35;;;;;;;25.20;22.90;;;14.70;99.90;;;;;;5049043;28;20614;-79
2021/09/27 01:56:08;;;;;;;24.67;22.33;;;14.70;99.90;;;;;;5055480;28;20610;-79
2021/09/27 01:58:52;;;;;;;24.47;22.20;;;14.70;99.90;;;;;;5056738;28;20206;-80
2021/09/27 02:01:25;;;;;;;24.23;22.13;;;14.80;99.90;;;;;;5056706;28;20187;-80
2021/09/27 02:03:58;;;;;;;19.70;17.53;;;14.80;99.90;;;;;;5049044;28;20206;-79
2021/09/27 02:06:31;;;;;;;15.80;14.20;;;14.80;99.90;;;;;;5051710;28;20221;-79
2021/09/27 02:09:04;;;;;;;16.03;13.50;;;14.90;99.90;;;;;;5051871;28;20666;-79
2021/09/27 02:11:32;;;;;;;17.83;15.93;;;14.80;99.90;;;;;;5042886;28;20195;-79
2021/09/27 02:14:06;;;;;;;16.90;14.00;;;14.90;99.90;;;;;;5051462;28;20200;-80
2021/09/27 02:16:42;;;;;;;15.87;14.17;;;14.80;99.90;;;;;;5047346;28;20232;-80
2021/09/27 02:19:20;;;;;;;16.00;14.30;;;14.80;99.90;;;;;;5050423;28;20661;-80
2021/09/27 02:21:51;;;;;;;16.50;14.23;;;14.80;99.90;;;;;;5051828;28;20661;-79
2021/09/27 02:24:28;;;;;;;18.70;14.60;;;14.80;99.90;;;;;;5059675;28;20647;-80
2021/09/27 02:26:55;;;;;;;16.07;13.40;;;14.80;99.90;;;;;;5045254;28;20239;-79
2021/09/27 02:29:22;;;;;;;14.37;12.87;;;14.70;99.90;;;;;;5055050;28;20196;-80
2021/09/27 02:31:59;;;;;;;15.80;13.30;;;14.70;99.90;;;;;;5055871;28;20206;-79
2021/09/27 02:34:36;;;;;;;15.63;13.87;;;14.60;99.90;;;;;;5050752;28;20213;-80
2021/09/27 02:37:06;;;;;;;16.90;13.60;;;14.50;99.90;;;;;;5052781;28;20211;-79
2021/09/27 02:39:40;;;;;;;14.43;12.93;;;14.50;99.90;;;;;;5052786;28;20295;-77
2021/09/27 02:42:14;;;;;;;13.80;12.40;;;14.40;99.90;;;;;;5054111;28;20207;-77
2021/09/27 02:44:41;;;;;;;15.43;13.43;;;14.40;99.90;;;;;;5054276;28;20203;-77
2021/09/27 02:47:12;;;;;;;20.07;18.37;;;14.30;99.90;;;;;;5041681;28;20270;-77
2021/09/27 02:49:44;;;;;;;20.50;18.80;;;14.30;99.90;;;;;;5040261;28;20655;-78
2021/09/27 02:52:14;;;;;;;21.63;19.73;;;14.20;99.90;;;;;;5041219;28;20204;-78
2021/09/27 02:54:52;;;;;;;21.07;19.37;;;14.20;99.90;;;;;;5039245;28;20261;-78
2021/09/27 02:57:41;;;;;;;21.50;19.77;;;14.20;99.90;;;;;;5035704;28;20235;-77
2021/09/27 03:00:12;;;;;;;20.53;18.83;;;14.10;99.90;;;;;;5058581;28;20200;-77
2021/09/27 03:02:48;;;;;;;21.30;19.50;;;14.10;99.90;;;;;;5050304;28;20207;-77
2021/09/27 03:05:27;;;;;;;22.33;20.37;;;14.10;99.90;;;;;;5050737;28;20230;-77
2021/09/27 03:08:15;;;;;;;22.77;20.87;;;14.00;99.90;;;;;;5047502;28;20222;-77
2021/09/27 03:10:49;;;;;;;21.77;19.97;;;14.00;99.90;;;;;;5059206;28;20195;-78
2021/09/27 03:13:25;;;;;;;23.80;21.80;;;14.00;99.90;;;;;;5052628;28;20199;-79
2021/09/27 03:16:11;;;;;;;22.57;20.67;;;14.00;99.90;;;;;;5046212;28;20219;-78
2021/09/27 03:18:50;;;;;;;23.33;21.43;;;14.00;99.90;;;;;;5061922;28;20211;-81
2021/09/27 03:21:29;;;;;;;23.23;21.27;;;14.10;99.90;;;;;;5071721;28;20187;-80
2021/09/27 03:24:08;;;;;;;23.30;21.40;;;14.10;99.90;;;;;;5057846;28;20201;-80
2021/09/27 03:26:54;;;;;;;22.83;20.80;;;14.10;99.90;;;;;;5057001;28;20227;-78
2021/09/27 03:29:32;;;;;;;23.83;21.83;;;14.10;99.90;;;;;;5048682;28;20203;-77
2021/09/27 03:32:05;;;;;;;23.83;21.83;;;14.10;99.90;;;;;;5041689;28;20196;-78
2021/09/27 03:34:43;;;;;;;22.87;21.07;;;14.10;99.90;;;;;;5044631;28;20204;-77
2021/09/27 03:37:31;;;;;;;23.30;21.10;;;14.10;99.90;;;;;;5047575;28;20231;-77
2021/09/27 03:40:19;;;;;;;23.90;21.87;;;14.10;99.90;;;;;;5041574;28;20582;-77
2021/09/27 03:42:54;;;;;;;22.87;20.87;;;14.20;99.90;;;;;;5050741;28;20199;-78
2021/09/27 03:45:26;;;;;;;23.23;21.33;;;14.20;99.90;;;;;;5051870;28;20623;-78
2021/09/27 03:48:01;;;;;;;22.63;20.73;;;14.20;99.90;;;;;;5048814;28;20199;-78
2021/09/27 03:50:35;;;;;;;22.10;20.20;;;14.20;99.90;;;;;;5050581;28;20248;-77
2021/09/27 03:53:08;;;;;;;23.83;21.83;;;14.20;99.90;;;;;;5052542;28;20222;-77
2021/09/27 03:55:43;;;;;;;22.77;20.83;;;14.20;99.90;;;;;;5045913;28;20218;-78
2021/09/27 03:58:15;;;;;;;23.40;21.20;;;14.20;99.90;;;;;;5069748;22;20285;-76
2021/09/27 04:00:47;;;;;;;22.70;20.70;;;14.20;99.90;;;;;;5030742;28;20276;-75
2021/09/27 04:03:35;;;;;;;22.87;20.97;;;14.20;99.90;;;;;;5031388;28;20206;-76
2021/09/27 04:06:27;;;;;;;22.73;20.93;;;14.20;99.90;;;;;;5024756;28;20689;-76
2021/09/27 04:09:02;;;;;;;23.07;21.07;;;14.20;99.90;;;;;;5003424;28;20193;-76
2021/09/27 04:11:36;;;;;;;22.33;20.43;;;14.20;99.90;;;;;;5010107;28;20203;-76
2021/09/27 04:14:08;;;;;;;22.03;20.23;;;14.20;99.90;;;;;;5010088;28;20278;-75
2021/09/27 04:16:45;;;;;;;21.70;19.93;;;14.20;99.90;;;;;;5010063;28;20229;-76
2021/09/27 04:19:19;;;;;;;23.43;21.33;;;14.20;99.90;;;;;;5011169;28;20196;-76
2021/09/27 04:22:00;;;;;;;23.50;21.50;;;14.20;99.90;;;;;;5011271;28;20231;-76
2021/09/27 04:24:44;;;;;;;24.17;21.97;;;14.20;99.90;;;;;;5011173;28;20269;-76
2021/09/27 04:27:39;;;;;;;18.07;14.27;;;14.20;99.90;;;;;;5009912;28;20223;-76
2021/09/27 04:30:25;;;;;;;18.40;14.47;;;14.20;99.90;;;;;;5009328;28;20247;-75
2021/09/27 04:33:20;;;;;;;16.43;13.67;;;14.10;99.90;;;;;;5002865;28;20255;-77
2021/09/27 04:35:53;;;;;;;17.03;13.83;;;14.00;99.90;;;;;;5011003;28;20702;-75
2021/09/27 04:38:21;;;;;;;15.70;13.03;;;14.00;99.90;;;;;;5006959;28;20224;-75
2021/09/27 04:41:07;;;;;;;14.97;12.33;;;13.90;99.90;;;;;;5013603;28;20235;-76
2021/09/27 04:43:47;;;;;;;19.30;17.50;;;13.90;99.90;;;;;;5014581;28;20196;-76
2021/09/27 04:46:19;;;;;;;14.63;13.13;;;13.80;99.90;;;;;;5029787;28;20196;-74
2021/09/27 04:49:04;;;;;;;22.27;20.17;;;13.80;99.90;;;;;;5014252;28;20277;-76
2021/09/27 04:51:44;;;;;;;22.77;20.60;;;13.80;99.90;;;;;;5028752;28;20201;-75
2021/09/27 04:54:49;;;;;;;22.07;20.27;;;13.80;99.90;;;;;;5013479;28;20636;-75
2021/09/27 04:57:26;;;;;;;21.73;19.87;;;13.70;99.90;;;;;;4953199;28;20323;-76
2021/09/27 05:00:04;;;;;;;22.63;20.60;;;13.60;99.90;;;;;;4946004;28;20213;-75
2021/09/27 05:02:52;;;;;;;20.80;19.03;;;13.60;99.90;;;;;;4991676;28;20282;-75
2021/09/27 05:05:31;;;;;;;21.33;19.53;;;13.50;99.90;;;;;;5014323;28;20262;-75
2021/09/27 05:08:16;;;;;;;22.73;20.73;;;13.40;99.90;;;;;;5011440;28;20628;-76
2021/09/27 05:11:05;;;;;;;22.00;20.13;;;13.40;99.90;;;;;;5029498;28;20207;-75
2021/09/27 05:13:55;;;;;;;23.40;21.27;;;13.30;99.90;;;;;;5011542;28;20270;-75
2021/09/27 05:16:36;;;;;;;23.50;21.50;;;13.20;99.90;;;;;;5008863;28;20274;-75
2021/09/27 05:19:15;;;;;;;23.83;21.73;;;13.30;99.90;;;;;;5013693;28;20203;-75
2021/09/27 05:22:03;;;;;;;21.80;20.00;;;13.30;99.90;;;;;;5014032;28;20193;-75
2021/09/27 05:24:50;;;;;;;22.20;20.30;;;13.30;99.90;;;;;;5016860;28;20195;-76
2021/09/27 05:27:51;;;;;;;21.07;19.30;;;13.30;99.90;;;;;;5009592;28;20212;-75
2021/09/27 05:30:29;;;;;;;22.60;20.60;;;13.30;99.90;;;;;;5009545;28;20663;-75
2021/09/27 05:33:03;;;;;;;22.57;20.70;;;13.30;99.90;;;;;;5006615;28;20195;-75
2021/09/27 05:35:48;;;;;;;22.20;20.27;;;13.20;99.90;;;;;;5013735;28;20204;-75
2021/09/27 05:38:25;;;;;;;23.00;21.00;;;13.20;99.90;;;;;;5008880;28;20218;-76
2021/09/27 05:41:01;;;;;;;21.73;19.93;;;13.20;99.90;;;;;;5029151;28;20671;-75
2021/09/27 05:43:47;;;;;;;22.17;20.27;;;13.20;99.90;;;;;;5010489;28;20698;-75
2021/09/27 05:46:34;;;;;;;22.80;20.77;;;13.20;99.90;;;;;;5025684;28;20201;-75
2021/09/27 05:49:06;;;;;;;21.50;19.70;;;13.30;99.90;;;;;;5012330;28;20245;-75
2021/09/27 05:51:40;;;;;;;23.27;21.27;;;13.40;99.90;;;;;;5013570;28;20199;-75
2021/09/27 05:54:16;;;;;;;22.07;20.17;;;13.50;99.90;;;;;;5025417;28;20196;-76
2021/09/27 05:56:50;;;;;;;13.93;11.67;;;13.50;99.90;;;;;;5011999;28;20616;-75
2021/09/27 05:59:25;;;;;;;14.43;12.03;;;13.60;99.90;;;;;;5013158;28;20643;-75
2021/09/27 06:02:02;;;;;;;13.80;11.97;;;13.60;99.90;;;;;;5013277;28;20246;-76
2021/09/27 06:04:42;;;;;;;19.80;18.10;;;13.70;99.90;;;;;;5013152;28;20639;-76
2021/09/27 06:07:15;;;;;;;19.20;17.50;;;13.90;99.90;;;;;;5013116;28;20227;-75
2021/09/27 06:09:54;;;;;;;15.83;14.30;;;14.00;99.90;;;;;;5012914;28;20204;-75
2021/09/27 06:12:29;;;;;;;19.57;17.83;;;14.20;99.90;;;;;;5013029;28;20197;-75
2021/09/27 06:15:04;;;;;;;19.40;17.33;;;14.30;99.90;;;;;;5005814;28;20748;-75
2021/09/27 06:18:01;;;;;;;15.03;12.50;;;14.50;99.90;;;;;;5011514;28;20228;-75
2021/09/27 06:20:35;;;;;;;12.60;11.30;;;14.60;99.90;;;;;;5008810;28;20208;-76
2021/09/27 06:23:21;;;;;;;12.67;11.37;;;14.70;99.90;;;;;;5018171;28;20247;-75
2021/09/27 06:25:56;;;;;;;13.23;10.00;;;14.80;99.90;;;;;;5011507;28;20197;-75
2021/09/27 06:28:31;;;;;;;12.47;10.37;;;14.90;99.90;;;;;;5011432;28;20215;-75
2021/09/27 06:31:05;;;;;;;11.67;9.47;;;15.00;99.90;;;;;;5006012;28;20749;-75
2021/09/27 06:33:37;;;;;;;16.17;14.60;;;15.10;99.90;;;;;;5011488;28;20210;-76
2021/09/27 06:36:08;;;;;;;13.57;12.17;;;15.30;99.90;;;;;;5012494;28;20196;-76
2021/09/27 06:38:37;;;;;;;11.83;10.60;;;15.30;99.90;;;;;;5027414;28;20271;-76
2021/09/27 06:41:07;;;;;;;15.17;13.87;;;15.40;99.90;;;;;;5012480;28;20328;-75
2021/09/27 06:43:34;;;;;;;10.73;9.63;;;15.50;99.90;;;;;;5012505;28;20207;-76
2021/09/27 06:46:01;;;;;;;11.07;9.63;;;15.60;99.90;;;;;;5027426;28;20262;-76
2021/09/27 06:48:27;;;;;;;9.80;8.80;;;15.60;99.90;;;;;;5010929;28;20225;-76
2021/09/27 06:50:57;;;;;;;15.03;13.83;;;15.60;99.90;;;;;;5027672;28;20210;-76
2021/09/27 06:53:25;;;;;;;15.70;14.40;;;15.70;99.90;;;;;;5011256;28;20939;-75
2021/09/27 06:55:52;;;;;;;11.23;9.00;;;15.60;99.90;;;;;;5004434;28;20665;-75
2021/09/27 06:58:21;;;;;;;9.87;8.87;;;15.60;99.90;;;;;;5010801;28;20797;-76
2021/09/27 07:00:48;;;;;;;10.43;9.33;;;15.70;99.90;;;;;;5027565;28;20193;-76
2021/09/27 07:03:15;;;;;;;10.67;9.57;;;15.90;99.90;;;;;;5012029;28;20724;-76
2021/09/27 07:05:41;;;;;;;12.50;11.30;;;16.20;99.90;;;;;;5027193;28;20256;-76
2021/09/27 07:08:10;;;;;;;9.37;8.10;;;16.50;99.90;;;;;;5012014;28;20221;-75
2021/09/27 07:10:37;;;;;;;10.40;8.90;;;16.90;99.90;;;;;;5027574;28;20701;-76
2021/09/27 07:13:04;;;;;;;9.63;8.20;;;17.10;99.90;;;;;;5012485;28;20569;-76
2021/09/27 07:15:31;;;;;;;12.17;11.07;;;17.00;99.90;;;;;;5012183;28;20224;-76
2021/09/27 07:17:57;;;;;;;17.20;15.90;;;16.90;99.90;;;;;;5011848;28;20224;-76
2021/09/27 07:20:27;;;;;;;17.03;15.40;;;16.90;99.90;;;;;;5012086;28;20246;-76
2021/09/27 07:22:54;;;;;;;17.77;16.27;;;17.30;99.90;;;;;;5011750;28;20204;-76
2021/09/27 07:25:23;;;;;;;16.50;15.10;;;17.90;99.90;;;;;;5011937;28;20216;-76
2021/09/27 07:27:50;;;;;;;14.23;13.03;;;18.40;99.90;;;;;;5003711;28;20259;-76
2021/09/27 07:30:19;;;;;;;9.97;8.67;;;19.00;99.90;;;;;;5011827;28;20216;-76
2021/09/27 07:32:46;;;;;;;11.43;9.93;;;19.40;99.90;;;;;;5011471;28;20217;-76
2021/09/27 07:35:16;;;;;;;9.77;8.77;;;19.70;99.90;;;;;;5026907;28;20213;-76
2021/09/27 07:37:43;;;;;;;10.67;9.33;;;20.20;99.90;;;;;;5010433;28;20226;-77
2021/09/27 07:40:15;;;;;;;16.37;15.07;;;20.50;99.90;;;;;;5010542;28;20699;-76
2021/09/27 07:42:43;;;;;;;12.87;11.77;;;20.70;99.90;;;;;;5011538;28;20199;-77
2021/09/27 07:45:13;;;;;;;9.33;8.37;;;20.90;99.90;;;;;;5010511;28;20254;-76
2021/09/27 07:47:40;;;;;;;15.80;14.60;;;21.30;99.90;;;;;;5012039;28;20251;-77
2021/09/27 07:50:09;;;;;;;15.67;14.47;;;21.50;99.90;;;;;;5023767;28;20272;-76
2021/09/27 07:52:36;;;;;;;9.20;7.90;;;21.80;99.90;;;;;;5024995;28;20204;-76
2021/09/27 07:55:05;;;;;;;13.70;12.50;;;21.90;99.90;;;;;;5011500;28;20200;-76
2021/09/27 07:57:32;;;;;;;8.57;7.67;;;22.30;99.90;;;;;;5009653;28;20311;-76
2021/09/27 08:00:00;;;;;;;7.83;7.10;;;22.50;99.90;;;;;;5011052;28;20667;-77
2021/09/27 08:02:30;;;;;;;14.13;13.13;;;22.70;99.90;;;;;;5011105;28;20687;-76
2021/09/27 08:04:57;;;;;;;15.17;14.07;;;22.90;99.90;;;;;;5026609;28;20632;-76
2021/09/27 08:07:23;;;;;;;9.90;9.00;;;23.10;99.90;;;;;;5011345;28;20217;-76
2021/09/27 08:09:51;;;;;;;10.10;9.23;;;23.10;99.90;;;;;;5018217;28;20258;-76
2021/09/27 08:12:18;;;;;;;12.67;11.63;;;23.20;99.90;;;;;;5011361;28;20212;-76
2021/09/27 08:14:45;;;;;;;14.40;13.30;;;23.30;99.90;;;;;;5011197;28;20204;-76
2021/09/27 08:17:13;;;;;;;13.17;12.07;;;23.30;99.90;;;;;;5015007;28;20234;-76
2021/09/27 08:19:42;;;;;;;8.77;7.97;;;23.40;99.90;;;;;;5014966;28;20422;-76
2021/09/27 08:22:10;;;;;;;12.90;12.00;;;23.40;99.90;;;;;;5013800;28;20201;-76
2021/09/27 08:24:38;;;;;;;8.00;7.20;;;23.50;99.90;;;;;;5013764;28;20556;-76
2021/09/27 08:27:05;;;;;;;7.33;6.63;;;23.70;99.90;;;;;;5013612;28;20266;-76
2021/09/27 08:29:32;;;;;;;9.43;6.57;;;23.80;99.90;;;;;;5029837;28;20254;-76
2021/09/27 08:31:59;;;;;;;8.47;7.33;;;23.80;99.90;;;;;;5014991;28;20750;-76
2021/09/27 08:34:27;;;;;;;7.53;6.73;;;23.70;99.90;;;;;;5029857;28;20223;-76
2021/09/27 08:36:55;;;;;;;8.23;7.30;;;23.80;99.90;;;;;;5014716;28;20556;-76
2021/09/27 08:39:22;;;;;;;9.73;8.73;;;24.00;99.90;;;;;;5014507;28;20544;-76
2021/09/27 08:41:53;;;;;;;9.67;8.47;;;24.00;99.90;;;;;;5014717;28;20227;-77
2021/09/27 08:44:48;;;;;;;10.20;9.30;;;24.20;99.90;;;;;;5013458;28;20258;-77
2021/09/27 08:47:21;;;;;;;8.13;7.43;;;24.40;99.90;;;;;;5024459;28;20307;-76
2021/09/27 08:49:54;;;;;;;7.20;6.50;;;24.40;99.90;;;;;;5014080;28;20604;-76
2021/09/27 08:52:24;;;;;;;8.07;7.37;;;24.30;99.90;;;;;;5014643;28;20208;-77
2021/09/27 08:54:52;;;;;;;7.27;6.13;;;24.60;99.90;;;;;;5013569;28;20209;-76
2021/09/27 08:57:38;;;;;;;12.17;11.37;;;24.80;99.90;;;;;;5029426;28;20705;-76
2021/09/27 09:00:13;;;;;;;6.87;6.17;;;24.60;99.90;;;;;;5010570;28;20192;-76
2021/09/27 09:02:53;;;;;;;11.97;11.07;;;24.50;99.90;;;;;;5014416;28;20204;-77
2021/09/27 09:05:27;;;;;;;6.90;6.30;;;24.70;99.90;;;;;;5014440;28;20207;-77
2021/09/27 09:08:00;;;;;;;6.50;5.50;;;24.80;99.90;;;;;;5013130;28;20208;-77
2021/09/27 09:10:39;;;;;;;7.67;6.93;;;25.00;99.90;;;;;;5014262;28;20200;-77
2021/09/27 09:13:08;;;;;;;8.03;7.43;;;25.10;99.90;;;;;;5014168;28;20588;-76
2021/09/27 09:15:36;;;;;;;10.93;10.13;;;25.30;99.90;;;;;;5029199;28;20204;-76
2021/09/27 09:18:06;;;;;;;12.00;11.20;;;25.30;99.90;;;;;;5013648;28;20230;-76
2021/09/27 09:20:44;;;;;;;11.57;10.77;;;25.40;99.90;;;;;;5012676;28;20199;-77
2021/09/27 09:23:17;;;;;;;12.40;11.57;;;25.40;99.90;;;;;;5008457;28;20204;-77
2021/09/27 09:25:44;;;;;;;8.33;7.60;;;25.30;99.90;;;;;;5013680;28;20192;-77
2021/09/27 09:28:12;;;;;;;8.27;7.47;;;25.10;99.90;;;;;;5028741;28;20221;-76
2021/09/27 09:30:46;;;;;;;8.93;8.23;;;25.10;99.90;;;;;;5013867;28;20632;-76
2021/09/27 09:33:38;;;;;;;6.20;5.67;;;25.00;99.90;;;;;;5013847;28;20251;-77
2021/09/27 09:36:08;;;;;;;6.67;6.17;;;25.10;99.90;;;;;;5007732;28;20734;-77
2021/09/27 09:38:36;;;;;;;6.13;5.63;;;25.00;99.90;;;;;;5012038;28;20750;-77
2021/09/27 09:41:05;;;;;;;11.50;10.70;;;25.00;99.90;;;;;;5012359;28;20683;-77
2021/09/27 09:43:34;;;;;;;11.70;10.90;;;25.10;99.90;;;;;;5013558;28;20204;-77
2021/09/27 09:46:09;;;;;;;11.53;10.67;;;25.00;99.90;;;;;;5013292;28;20722;-77
2021/09/27 09:48:37;;;;;;;11.70;10.80;;;25.00;99.90;;;;;;5011916;28;20220;-77
2021/09/27 09:51:23;;;;;;;11.20;10.40;;;24.90;99.90;;;;;;5012201;28;20204;-77
2021/09/27 09:54:18;;;;;;;12.57;11.67;;;24.80;99.90;;;;;;5020624;28;20201;-77
2021/09/27 09:59:52;;;;;;;11.50;10.70;;;24.70;99.90;;;;;;5013297;28;20231;-77
2021/09/27 10:02:22;;;;;;;12.00;11.10;;;24.10;99.90;;;;;;5005354;28;20671;-78
2021/09/27 10:04:53;;;;;;;11.33;10.53;;;23.70;99.90;;;;;;5014604;28;20200;-78
2021/09/27 10:07:31;;;;;;;10.43;9.73;;;23.50;99.90;;;;;;5009576;28;20211;-77
2021/09/27 10:10:06;;;;;;;10.97;10.27;;;23.50;99.90;;;;;;5042394;28;20250;-77
2021/09/27 10:12:45;;;;;;;12.43;11.53;;;23.50;99.90;;;;;;5024874;28;20196;-77
2021/09/27 10:15:16;;;;;;;12.30;11.50;;;23.70;99.90;;;;;;5034335;28;20249;-77
2021/09/27 10:17:43;;;;;;;6.87;6.27;;;23.70;99.90;;;;;;5024884;28;20208;-76
2021/09/27 10:20:16;;;;;;;6.30;5.80;;;23.70;99.90;;;;;;5026956;28;20199;-77
2021/09/27 10:22:54;;;;;;;6.70;6.10;;;23.60;99.90;;;;;;5033732;28;20628;-78
2021/09/27 10:25:30;;;;;;;11.93;11.03;;;23.50;99.90;;;;;;5034050;28;20253;-78
2021/09/27 10:27:59;;;;;;;11.63;10.63;;;23.40;99.90;;;;;;5028586;28;20227;-77
2021/09/27 10:30:40;;;;;;;10.97;10.27;;;23.40;99.90;;;;;;5031171;28;20202;-78
2021/09/27 10:33:16;;;;;;;10.13;9.43;;;23.40;99.90;;;;;;5034686;28;20265;-78
2021/09/27 10:35:50;;;;;;;10.40;9.70;;;23.30;99.90;;;;;;5032923;28;20206;-77
2021/09/27 10:38:22;;;;;;;10.23;9.43;;;23.20;99.90;;;;;;5033689;28;20212;-77
2021/09/27 10:40:51;;;;;;;10.20;9.50;;;23.10;99.90;;;;;;5034484;28;20192;-78
2021/09/27 10:43:20;;;;;;;10.00;9.40;;;23.10;99.90;;;;;;5033254;28;20193;-78
2021/09/27 10:45:50;;;;;;;9.90;9.27;;;23.10;99.90;;;;;;5033855;28;20249;-77
2021/09/27 10:48:18;;;;;;;9.80;9.17;;;23.00;99.90;;;;;;5024421;28;20592;-77
2021/09/27 10:50:47;;;;;;;9.57;8.87;;;22.90;99.90;;;;;;5024133;28;20242;-77
2021/09/27 10:53:23;;;;;;;9.77;9.07;;;22.90;99.90;;;;;;5032728;28;20644;-77
2021/09/27 10:55:56;;;;;;;9.37;8.77;;;22.90;99.90;;;;;;5031566;28;20203;-77
2021/09/27 10:58:36;;;;;;;9.77;8.80;;;23.00;99.90;;;;;;5023535;28;20616;-77
2021/09/27 11:01:05;;;;;;;9.53;8.93;;;23.10;99.90;;;;;;5026663;28;20205;-78
2021/09/27 11:03:38;;;;;;;9.57;8.97;;;23.20;99.90;;;;;;5024421;28;20616;-77
2021/09/27 11:06:32;;;;;;;9.50;8.90;;;23.20;99.90;;;;;;5028108;28;20196;-77
2021/09/27 11:09:06;;;;;;;9.50;8.90;;;23.20;99.90;;;;;;5031976;28;20576;-77
2021/09/27 11:11:40;;;;;;;9.67;8.97;;;23.10;99.90;;;;;;5032282;28;20689;-77
2021/09/27 11:14:23;;;;;;;9.60;8.80;;;22.90;99.90;;;;;;5033323;28;20192;-78
2021/09/27 11:17:08;;;;;;;10.00;9.20;;;22.70;99.90;;;;;;5026486;28;20695;-78
2021/09/27 11:19:39;;;;;;;9.73;9.03;;;22.70;99.90;;;;;;5026780;28;20245;-79
2021/09/27 11:22:35;;;;;;;9.93;9.23;;;22.80;99.90;;;;;;5032975;28;20281;-78
2021/09/27 11:25:26;;;;;;;9.90;9.20;;;23.00;99.90;;;;;;4988339;28;20234;-78
2021/09/27 11:28:14;;;;;;;9.07;8.47;;;22.90;99.90;;;;;;5031676;28;20283;-77
2021/09/27 11:30:45;;;;;;;9.10;8.50;;;22.80;99.90;;;;;;5031443;28;20199;-78
2021/09/27 11:33:46;;;;;;;9.10;8.50;;;22.60;99.90;;;;;;5033110;28;20230;-78
2021/09/27 11:36:31;;;;;;;9.27;8.57;;;22.50;99.90;;;;;;5026838;28;20196;-78
2021/09/27 11:39:34;;;;;;;9.00;8.40;;;22.50;99.90;;;;;;5031705;28;20269;-78
2021/09/27 11:42:34;;;;;;;9.17;8.47;;;22.60;99.90;;;;;;5029551;28;20208;-78
2021/09/27 11:45:47;;;;;;;9.13;8.53;;;22.60;99.90;;;;;;5031968;28;20199;-79
2021/09/27 11:48:44;;;;;;;9.40;8.80;;;22.90;99.90;;;;;;4990749;28;20208;-78
2021/09/27 11:51:32;;;;;;;9.43;8.83;;;23.20;99.90;;;;;;5027533;28;20249;-78
2021/09/27 11:54:19;;;;;;;9.40;8.80;;;23.40;99.90;;;;;;5030102;28;20196;-78
2021/09/27 11:56:52;;;;;;;9.40;8.80;;;23.60;99.90;;;;;;5036841;28;20196;-78
2021/09/27 11:59:27;;;;;;;9.37;8.77;;;23.80;99.90;;;;;;5027955;28;20262;-78
2021/09/27 12:02:02;;;;;;;9.13;8.50;;;23.70;99.90;;;;;;5025440;28;20187;-78
2021/09/27 12:04:45;;;;;;;3.20;3.00;;;23.80;99.90;;;;;;5027345;28;20249;-78
2021/09/27 12:07:15;;;;;;;4.23;3.93;;;24.00;99.90;;;;;;5036222;28;20705;-78
2021/09/27 12:09:48;;;;;;;8.33;7.83;;;23.90;99.90;;;;;;5036496;28;20590;-79
2021/09/27 12:12:23;;;;;;;9.00;8.40;;;24.00;99.90;;;;;;5036719;28;20607;-78
2021/09/27 12:14:51;;;;;;;8.90;8.30;;;24.10;99.90;;;;;;5036570;28;20195;-78
2021/09/27 12:17:22;;;;;;;9.13;8.53;;;24.00;99.90;;;;;;5027019;28;20302;-78
2021/09/27 12:19:55;;;;;;;9.00;8.40;;;23.90;99.90;;;;;;5026315;28;20212;-78
2021/09/27 12:22:28;;;;;;;8.30;7.80;;;23.80;99.90;;;;;;5036285;28;20269;-77
2021/09/27 12:24:55;;;;;;;8.97;8.43;;;23.80;99.90;;;;;;5044083;28;20253;-78
2021/09/27 12:27:24;;;;;;;8.30;7.70;;;23.80;99.90;;;;;;5036401;28;20214;-77
2021/09/27 12:29:56;;;;;;;8.07;7.57;;;23.80;99.90;;;;;;5034049;28;20280;-79
2021/09/27 12:32:30;;;;;;;8.00;7.50;;;23.80;99.90;;;;;;5034258;28;20254;-79
2021/09/27 12:35:00;;;;;;;8.90;8.37;;;23.90;99.90;;;;;;5030550;28;20270;-78
2021/09/27 12:37:34;;;;;;;7.67;7.17;;;23.90;99.90;;;;;;5033442;28;20274;-78
2021/09/27 12:40:01;;;;;;;8.37;7.73;;;23.80;99.90;;;;;;5035879;28;20219;-77
2021/09/27 12:42:36;;;;;;;8.17;7.67;;;23.80;99.90;;;;;;5036043;28;20605;-78
2021/09/27 12:45:11;;;;;;;8.40;7.90;;;23.80;99.90;;;;;;5035712;28;20199;-78
2021/09/27 12:47:39;;;;;;;7.60;7.00;;;23.80;99.90;;;;;;5035986;28;20222;-77
2021/09/27 12:50:10;;;;;;;8.40;7.80;;;23.80;99.90;;;;;;5035936;28;20222;-78
2021/09/27 12:52:42;;;;;;;7.70;7.20;;;24.00;99.90;;;;;;5036719;28;20238;-77
2021/09/27 12:55:13;;;;;;;7.70;7.20;;;24.00;99.90;;;;;;5036192;28;20262;-78
2021/09/27 12:57:42;;;;;;;7.80;7.30;;;24.10;99.90;;;;;;5036375;28;20595;-78
2021/09/27 13:00:15;;;;;;;8.07;7.57;;;24.30;99.90;;;;;;5027755;28;20279;-78
2021/09/27 13:02:44;;;;;;;7.87;7.37;;;24.50;99.90;;;;;;5035372;28;20262;-78
2021/09/27 13:05:18;;;;;;;8.07;7.37;;;24.60;99.90;;;;;;5029222;28;20201;-78
2021/09/27 13:07:50;;;;;;;3.60;2.80;;;24.70;99.90;;;;;;5035921;28;20223;-77
2021/09/27 13:10:24;;;;;;;2.90;2.70;;;24.70;99.90;;;;;;5037481;28;20188;-78
2021/09/27 13:13:02;;;;;;;6.97;6.47;;;24.60;99.90;;;;;;5028927;28;20195;-78
2021/09/27 13:15:32;;;;;;;7.60;7.10;;;24.60;99.90;;;;;;5030317;28;20203;-78
2021/09/27 13:18:06;;;;;;;7.23;6.73;;;24.50;99.90;;;;;;5036850;28;20212;-78